createdAt,value
2023-03-17T00:53:41.013Z,56.33
2023-03-17T00:58:45.528Z,53.58
2023-03-17T01:03:48.037Z,55.15
2023-03-17T01:08:52.232Z,55.30
2023-03-17T01:13:54.785Z,55.03
2023-03-17T01:19:00.132Z,54.80
2023-03-17T01:24:06.188Z,51.30
2023-03-17T01:29:08.815Z,46.83
2023-03-17T01:34:14.153Z,42.45
2023-03-17T01:39:19.557Z,54.60
2023-03-17T01:44:22.573Z,52.53
2023-03-17T01:49:32.439Z,47.88
2023-03-17T01:54:44.664Z,43.60
2023-03-17T01:59:52.001Z,38.97
2023-03-17T02:04:55.386Z,34.80
2023-03-17T02:10:00.340Z,33.07
2023-03-17T02:15:03.219Z,30.83
2023-03-17T02:21:19.869Z,32.88
2023-03-17T02:26:26.769Z,37.13
2023-03-17T02:31:29.754Z,34.78
2023-03-17T02:36:32.298Z,40.33
2023-03-17T02:41:36.790Z,34.90
2023-03-17T02:46:39.237Z,30.33
2023-03-17T02:51:41.737Z,29.35
2023-03-17T02:56:48.257Z,26.35
2023-03-17T03:01:50.961Z,27.07
2023-03-17T03:06:53.939Z,22.95
2023-03-17T03:11:57.948Z,24.92
2023-03-17T03:17:00.783Z,28.63
2023-03-17T03:22:06.409Z,26.17
2023-03-17T03:27:10.944Z,25.13
2023-03-17T03:32:13.799Z,25.50
2023-03-17T03:37:16.360Z,24.30
2023-03-17T03:42:22.991Z,22.00
2023-03-17T03:47:25.588Z,21.65
2023-03-17T03:52:28.113Z,20.67
2023-03-17T03:57:32.119Z,19.05
2023-03-17T04:02:34.978Z,19.95
2023-03-17T04:07:37.471Z,19.98
2023-03-17T04:12:44.994Z,25.77
2023-03-17T04:17:47.900Z,20.90
2023-03-17T04:22:50.385Z,25.27
2023-03-17T04:27:54.435Z,21.83
2023-03-17T04:32:56.923Z,19.73
2023-03-17T04:37:59.345Z,19.65
2023-03-17T04:43:03.689Z,20.77
2023-03-17T04:48:06.520Z,21.38
2023-03-17T04:53:09.221Z,25.08
2023-03-17T04:58:21.106Z,22.13
2023-03-17T05:03:31.394Z,24.02
2023-03-17T05:08:33.957Z,22.80
2023-03-17T05:13:37.956Z,22.40
2023-03-17T05:18:43.211Z,20.85
2023-03-17T05:23:45.673Z,18.77
2023-03-17T05:28:52.750Z,16.63
2023-03-17T05:33:55.283Z,16.87
2023-03-17T05:38:58.026Z,14.85
2023-03-17T05:44:02.048Z,14.20
2023-03-17T05:49:04.690Z,13.77
2023-03-17T05:54:07.508Z,13.45
2023-03-17T05:59:14.724Z,13.73
2023-03-17T06:05:06.750Z,14.02
2023-03-17T06:11:07.896Z,12.40
2023-03-17T06:16:42.528Z,13.05
2023-03-17T06:22:00.645Z,11.68
2023-03-17T06:27:06.366Z,11.10
2023-03-17T06:32:20.343Z,11.25
2023-03-17T06:37:24.204Z,10.65
2023-03-17T06:42:29.327Z,12.00
2023-03-17T06:47:34.179Z,11.75
2023-03-17T06:52:37.602Z,12.27
2023-03-17T06:57:42.545Z,11.75
2023-03-17T07:02:47.034Z,11.82
2023-03-17T07:07:49.728Z,11.27
2023-03-17T07:12:52.564Z,12.80
2023-03-17T07:17:56.676Z,11.50
2023-03-17T07:23:01.270Z,11.35
2023-03-17T07:28:06.967Z,9.48
2023-03-17T07:33:11.013Z,9.98
2023-03-17T07:38:13.778Z,9.65
2023-03-17T07:43:17.613Z,9.20
2023-03-17T07:48:24.169Z,10.20
2023-03-17T07:53:28.076Z,9.07
2023-03-17T07:58:30.884Z,9.10
2023-03-17T08:03:39.297Z,8.05
2023-03-17T08:08:44.338Z,8.60
2023-03-17T08:13:47.885Z,8.20
2023-03-17T08:18:54.959Z,8.20
2023-03-17T08:24:00.709Z,7.60
2023-03-17T08:29:05.060Z,7.70
2023-03-17T08:34:12.892Z,7.50
2023-03-17T08:39:16.562Z,7.55
2023-03-17T08:44:21.133Z,7.50
2023-03-17T08:50:23.298Z,7.07
2023-03-17T08:55:30.854Z,7.18
2023-03-17T09:00:37.864Z,6.60
2023-03-17T09:05:43.328Z,6.65
2023-03-17T09:10:47.659Z,6.88
2023-03-17T09:15:52.209Z,5.10
2023-03-17T09:20:57.285Z,6.22
2023-03-17T09:26:03.433Z,7.47
2023-03-17T09:31:07.966Z,7.20
2023-03-17T09:36:12.570Z,6.13
2023-03-17T09:41:51.167Z,6.60
2023-03-17T09:47:18.942Z,6.75
2023-03-17T09:52:29.839Z,6.53
2023-03-17T09:57:37.625Z,6.20
2023-03-17T10:02:41.227Z,6.75
2023-03-17T10:08:03.531Z,6.27
2023-03-17T10:13:36.636Z,7.22
2023-03-17T10:18:47.204Z,6.37
2023-03-17T10:23:54.131Z,7.30
2023-03-17T10:28:59.370Z,6.63
2023-03-17T10:34:16.949Z,7.30
2023-03-17T10:39:25.686Z,7.20
2023-03-17T10:44:45.094Z,6.67
2023-03-17T10:50:39.692Z,7.10
2023-03-17T11:03:19.306Z,7.97
2023-03-17T11:08:38.440Z,7.78
2023-03-17T11:13:46.211Z,8.30
2023-03-17T11:19:01.527Z,7.50
2023-03-17T11:24:12.291Z,7.13
2023-03-17T11:29:28.974Z,7.50
2023-03-17T11:34:58.107Z,7.60
2023-03-17T11:40:18.617Z,8.57
2023-03-17T11:45:29.099Z,8.05
2023-03-17T11:50:40.974Z,7.30
2023-03-17T11:55:49.011Z,7.00
2023-03-17T12:00:58.789Z,7.15
2023-03-17T12:06:09.872Z,6.80
2023-03-17T12:11:18.209Z,6.60
2023-03-17T12:16:31.797Z,6.00
2023-03-17T12:21:44.946Z,6.50
2023-03-17T12:26:59.055Z,6.43
2023-03-17T12:32:08.048Z,5.40
2023-03-17T12:37:16.033Z,5.53
2023-03-17T12:42:46.450Z,4.90
2023-03-17T12:48:24.964Z,3.70
2023-03-17T12:53:32.446Z,3.05
2023-03-17T12:58:40.262Z,3.83
2023-03-17T13:04:02.139Z,3.65
2023-03-17T13:09:47.191Z,3.72
2023-03-17T13:15:00.641Z,4.20
2023-03-17T13:20:18.534Z,3.38
2023-03-17T13:25:33.912Z,4.03
2023-03-17T13:31:11.984Z,3.90
2023-03-17T13:36:46.449Z,3.50
2023-03-17T13:42:18.723Z,4.77
2023-03-17T13:47:35.098Z,4.28
2023-03-17T13:52:48.398Z,6.35
2023-03-17T13:58:22.194Z,15.77
2023-03-17T14:03:36.227Z,4.90
2023-03-17T14:08:49.271Z,4.30
2023-03-17T14:14:29.646Z,3.50
2023-03-17T14:19:34.029Z,3.70
2023-03-17T14:24:36.851Z,3.80
2023-03-17T14:29:41.510Z,3.78
2023-03-17T14:34:53.283Z,3.97
2023-03-17T14:39:58.217Z,3.60
2023-03-17T14:45:05.795Z,3.95
2023-03-17T14:50:17.998Z,4.33
2023-03-17T14:55:21.219Z,13.20
2023-03-17T15:00:35.690Z,7.65
2023-03-17T15:05:41.536Z,6.60
2023-03-17T15:10:44.298Z,4.22
2023-03-17T15:15:48.355Z,4.03
2023-03-17T15:20:50.912Z,3.63
2023-03-17T15:25:57.331Z,4.32
2023-03-17T15:31:13.526Z,4.37
2023-03-17T15:36:33.528Z,3.80
2023-03-17T15:41:36.115Z,4.50
2023-03-17T15:46:40.158Z,4.18
2023-03-17T15:51:42.644Z,4.15
2023-03-17T15:56:45.263Z,3.43
2023-03-17T16:01:49.286Z,4.03
2023-03-17T16:06:52.005Z,4.77
2023-03-17T16:11:54.764Z,4.68
2023-03-17T16:16:58.879Z,3.97
2023-03-17T16:22:01.520Z,3.63
2023-03-17T16:27:14.414Z,4.07
2023-03-17T16:32:18.788Z,5.17
2023-03-17T16:37:21.259Z,4.03
2023-03-17T16:42:24.870Z,3.80
2023-03-17T16:47:28.763Z,4.70
2023-03-17T16:52:31.313Z,3.97
2023-03-17T16:57:34.060Z,4.23
2023-03-17T17:02:38.068Z,3.83
2023-03-17T17:07:40.719Z,4.35
2023-03-17T17:12:43.236Z,3.70
2023-03-17T17:17:50.349Z,5.18
2023-03-17T17:22:52.747Z,4.97
2023-03-17T17:27:56.568Z,5.30
2023-03-17T17:33:01.726Z,5.18
2023-03-17T17:38:05.019Z,5.30
2023-03-17T17:43:08.993Z,4.57
2023-03-17T17:48:13.277Z,3.58
2023-03-17T17:53:15.749Z,3.80
2023-03-17T17:58:21.609Z,4.15
2023-03-17T18:03:26.441Z,4.60
2023-03-17T18:08:29.015Z,4.28
2023-03-17T18:13:32.330Z,4.60
2023-03-17T18:18:36.406Z,4.67
2023-03-17T18:23:39.519Z,5.00
2023-03-17T18:28:42.392Z,5.87
2023-03-17T18:33:49.132Z,6.22
2023-03-17T18:38:51.751Z,6.65
2023-03-17T18:43:54.144Z,6.07
2023-03-17T18:48:57.991Z,6.07
2023-03-17T18:54:00.787Z,7.00
2023-03-17T18:59:03.320Z,6.05
2023-03-17T19:04:07.740Z,6.43
2023-03-17T19:09:10.883Z,6.80
2023-03-17T19:14:13.267Z,6.78
2023-03-17T19:19:17.046Z,6.77
2023-03-17T19:24:19.522Z,7.15
2023-03-17T19:29:21.926Z,6.25
2023-03-17T19:34:25.763Z,6.90
2023-03-17T19:39:28.232Z,8.15
2023-03-17T19:44:30.586Z,6.77
2023-03-17T19:49:34.452Z,7.03
2023-03-17T19:54:37.546Z,7.55
2023-03-17T19:59:40.465Z,7.23
2023-03-17T20:04:44.729Z,7.07
2023-03-17T20:09:47.218Z,8.07
2023-03-17T20:14:49.757Z,7.97
2023-03-17T20:19:53.979Z,7.20
2023-03-17T20:24:56.410Z,8.27
2023-03-17T20:29:59.312Z,7.90
2023-03-17T20:35:06.133Z,7.60
2023-03-17T20:40:12.062Z,8.23
2023-03-17T20:45:14.770Z,8.02
2023-03-17T20:50:22.416Z,7.93
2023-03-17T20:55:24.790Z,8.15
2023-03-17T21:00:27.989Z,7.00
2023-03-17T21:05:32.633Z,9.45
2023-03-17T21:10:35.368Z,8.93
2023-03-17T21:15:37.964Z,8.27
2023-03-17T21:20:41.796Z,8.77
2023-03-17T21:25:44.188Z,8.20
2023-03-17T21:30:46.548Z,8.30
2023-03-17T21:35:50.645Z,8.27
2023-03-17T21:40:53.709Z,7.87
2023-03-17T21:45:56.963Z,8.50
2023-03-17T21:51:01.013Z,8.73
2023-03-17T21:56:03.623Z,8.55
2023-03-17T22:01:06.595Z,8.52
2023-03-17T22:06:11.757Z,8.00
2023-03-17T22:11:17.589Z,7.35
2023-03-17T22:16:20.173Z,8.27
2023-03-17T22:21:24.432Z,7.30
2023-03-17T22:26:26.883Z,7.35
2023-03-17T22:31:30.182Z,8.17
2023-03-17T22:36:37.298Z,7.90
2023-03-17T22:41:39.713Z,8.83
2023-03-17T22:46:42.123Z,9.75
2023-03-17T22:51:45.960Z,8.80
2023-03-17T22:56:51.140Z,7.53
2023-03-17T23:01:53.543Z,7.80
2023-03-17T23:06:57.317Z,8.00
2023-03-17T23:12:02.292Z,7.45
2023-03-17T23:17:05.787Z,7.95
2023-03-17T23:22:09.730Z,8.10
2023-03-17T23:27:15.016Z,7.53
2023-03-17T23:32:17.432Z,7.73
2023-03-17T23:37:21.200Z,8.10
2023-03-17T23:42:23.556Z,7.00
2023-03-17T23:47:26.169Z,7.47
2023-03-17T23:52:30.165Z,6.97
2023-03-17T23:57:32.852Z,8.20
